createdAt,value
2022-11-16T00:00:05.869Z,77.30
2022-11-16T00:02:54.472Z,84.00
2022-11-16T00:05:27.956Z,76.40
2022-11-16T00:07:56.554Z,80.30
2022-11-16T00:10:24.658Z,81.80
2022-11-16T00:12:52.835Z,77.50
2022-11-16T00:15:20.579Z,79.30
2022-11-16T00:17:48.355Z,83.80
2022-11-16T00:20:16.355Z,85.30
2022-11-16T00:22:44.175Z,88.10
2022-11-16T00:25:11.917Z,77.60
2022-11-16T00:27:39.553Z,83.40
2022-11-16T00:30:09.923Z,83.30
2022-11-16T00:32:37.671Z,74.70
2022-11-16T00:35:06.032Z,77.30
2022-11-16T00:37:33.841Z,80.10
2022-11-16T00:40:01.549Z,71.10
2022-11-16T00:42:29.216Z,78.30
2022-11-16T00:44:56.860Z,64.30
2022-11-16T00:47:24.553Z,71.80
2022-11-16T00:49:52.246Z,69.90
2022-11-16T00:52:19.841Z,56.60
2022-11-16T00:54:47.626Z,55.10
2022-11-16T00:57:15.356Z,54.90
2022-11-16T00:59:43.049Z,57.50
2022-11-16T01:02:10.796Z,56.10
2022-11-16T01:04:38.510Z,54.80
2022-11-16T01:07:06.344Z,58.90
2022-11-16T01:09:34.190Z,50.70
2022-11-16T01:12:11.107Z,54.90
2022-11-16T01:14:45.892Z,56.70
2022-11-16T01:17:15.022Z,51.90
2022-11-16T01:19:42.763Z,55.50
2022-11-16T01:22:10.614Z,59.60
2022-11-16T01:24:38.287Z,59.90
2022-11-16T01:27:05.987Z,55.20
2022-11-16T01:29:33.678Z,63.30
2022-11-16T01:32:01.410Z,59.70
2022-11-16T01:34:29.061Z,68.40
2022-11-16T01:36:56.773Z,65.00
2022-11-16T01:39:24.546Z,63.40
2022-11-16T01:41:52.369Z,64.70
2022-11-16T01:44:32.241Z,55.40
2022-11-16T01:47:03.006Z,57.60
2022-11-16T01:49:35.110Z,53.50
2022-11-16T01:52:09.862Z,62.00
2022-11-16T01:54:42.689Z,66.20
2022-11-16T01:57:18.218Z,74.00
2022-11-16T01:59:49.919Z,60.60
2022-11-16T02:02:17.634Z,65.50
2022-11-16T02:04:48.808Z,61.80
2022-11-16T02:07:26.697Z,66.50
2022-11-16T02:10:06.669Z,61.00
2022-11-16T02:13:07.402Z,58.60
2022-11-16T02:15:50.207Z,55.70
2022-11-16T02:19:07.723Z,59.60
2022-11-16T02:21:51.363Z,61.50
2022-11-16T02:24:42.668Z,60.20
2022-11-16T02:27:52.762Z,60.50
2022-11-16T02:30:21.803Z,60.40
2022-11-16T02:33:11.656Z,63.40
2022-11-16T02:35:49.070Z,65.90
2022-11-16T02:38:27.749Z,58.20
2022-11-16T02:41:05.034Z,55.30
2022-11-16T02:43:42.972Z,61.60
2022-11-16T02:46:21.771Z,54.50
2022-11-16T02:48:59.017Z,54.90
2022-11-16T02:51:29.055Z,60.00
2022-11-16T02:54:14.662Z,62.90
2022-11-16T02:57:02.049Z,62.20
2022-11-16T02:59:49.058Z,52.40
2022-11-16T03:02:50.919Z,62.30
2022-11-16T03:05:32.286Z,54.70
2022-11-16T03:08:21.042Z,59.00
2022-11-16T03:11:24.529Z,61.50
2022-11-16T03:13:57.770Z,59.80
2022-11-16T03:16:50.941Z,68.50
2022-11-16T03:19:42.514Z,62.20
2022-11-16T03:22:44.147Z,62.10
2022-11-16T03:25:18.371Z,57.20
2022-11-16T03:28:07.868Z,56.50
2022-11-16T03:30:44.181Z,56.20
2022-11-16T03:33:39.796Z,49.10
2022-11-16T03:36:29.451Z,53.70
2022-11-16T03:39:05.498Z,57.40
2022-11-16T03:41:37.339Z,49.00
2022-11-16T03:44:08.888Z,49.10
2022-11-16T03:46:37.082Z,52.60
2022-11-16T03:49:06.058Z,53.40
2022-11-16T03:51:33.883Z,49.60
2022-11-16T03:54:01.594Z,57.00
2022-11-16T03:56:29.401Z,57.10
2022-11-16T03:58:57.160Z,55.20
2022-11-16T04:01:24.923Z,51.50
2022-11-16T04:03:52.579Z,51.10
2022-11-16T04:06:46.639Z,51.70
2022-11-16T04:09:32.834Z,49.20
2022-11-16T04:12:19.364Z,57.40
2022-11-16T04:15:05.603Z,58.50
2022-11-16T04:17:52.124Z,63.70
2022-11-16T04:20:38.856Z,64.00
2022-11-16T04:23:32.733Z,67.80
2022-11-16T04:26:00.586Z,70.30
2022-11-16T04:28:34.449Z,81.70
2022-11-16T04:31:24.041Z,79.10
2022-11-16T04:34:11.980Z,87.90
2022-11-16T04:36:58.395Z,88.80
2022-11-16T04:39:26.054Z,86.20
2022-11-16T04:42:12.518Z,93.30
2022-11-16T04:44:59.010Z,91.80
2022-11-16T04:47:26.747Z,90.60
2022-11-16T04:49:54.463Z,94.60
2022-11-16T04:52:22.106Z,100.30
2022-11-16T04:54:50.012Z,104.50
2022-11-16T04:57:17.640Z,102.60
2022-11-16T04:59:45.347Z,108.90
2022-11-16T05:02:13.252Z,111.60
2022-11-16T05:04:43.780Z,105.30
2022-11-16T05:07:14.561Z,92.90
2022-11-16T05:09:48.207Z,93.30
2022-11-16T05:12:24.954Z,86.10
2022-11-16T05:14:55.236Z,98.00
2022-11-16T05:17:25.517Z,86.00
2022-11-16T05:20:13.206Z,83.10
2022-11-16T05:22:41.275Z,86.20
2022-11-16T05:25:10.868Z,77.30
2022-11-16T05:27:38.979Z,69.00
2022-11-16T05:30:07.686Z,75.10
2022-11-16T05:32:35.349Z,82.00
2022-11-16T05:35:03.367Z,83.40
2022-11-16T05:37:31.017Z,80.80
2022-11-16T05:39:58.877Z,71.30
2022-11-16T05:42:26.706Z,72.30
2022-11-16T05:44:54.512Z,71.40
2022-11-16T05:47:22.331Z,77.70
2022-11-16T05:49:50.003Z,70.90
2022-11-16T05:52:17.648Z,76.40
2022-11-16T05:54:45.442Z,82.00
2022-11-16T05:57:13.108Z,86.70
2022-11-16T05:59:40.705Z,79.70
2022-11-16T06:02:08.588Z,69.50
2022-11-16T06:04:36.314Z,69.40
2022-11-16T06:07:04.315Z,68.10
2022-11-16T06:09:32.126Z,71.90
2022-11-16T06:11:59.776Z,83.10
2022-11-16T06:14:27.592Z,74.70
2022-11-16T06:16:55.304Z,79.10
2022-11-16T06:19:27.020Z,82.00
2022-11-16T06:21:58.920Z,69.30
2022-11-16T06:24:26.581Z,51.40
2022-11-16T06:26:54.537Z,69.80
2022-11-16T06:29:22.375Z,77.50
2022-11-16T06:31:50.451Z,61.00
2022-11-16T06:34:18.109Z,81.60
2022-11-16T06:36:45.842Z,86.60
2022-11-16T06:39:13.552Z,80.40
2022-11-16T06:41:41.701Z,83.20
2022-11-16T06:44:09.966Z,81.20
2022-11-16T06:46:37.578Z,80.00
2022-11-16T06:49:05.272Z,64.00
2022-11-16T06:51:32.917Z,44.90
2022-11-16T06:54:00.623Z,67.70
2022-11-16T06:56:28.432Z,70.40
2022-11-16T06:58:57.220Z,78.80
2022-11-16T07:01:24.991Z,79.80
2022-11-16T07:03:52.762Z,71.60
2022-11-16T07:06:20.459Z,67.70
2022-11-16T07:08:48.153Z,80.00
2022-11-16T07:11:15.857Z,67.50
2022-11-16T07:13:43.510Z,69.20
2022-11-16T07:16:12.514Z,68.30
2022-11-16T07:18:42.086Z,70.70
2022-11-16T07:21:14.296Z,75.80
2022-11-16T07:23:42.144Z,78.80
2022-11-16T07:26:11.374Z,76.10
2022-11-16T07:28:44.906Z,66.30
2022-11-16T07:31:16.609Z,67.10
2022-11-16T07:33:44.291Z,81.80
2022-11-16T07:36:14.706Z,72.50
2022-11-16T07:38:42.593Z,76.50
2022-11-16T07:41:14.743Z,63.70
2022-11-16T07:43:42.597Z,82.30
2022-11-16T07:49:11.311Z,80.20
2022-11-16T07:51:39.297Z,82.10
2022-11-16T07:54:07.017Z,79.30
2022-11-16T07:56:34.711Z,71.20
2022-11-16T07:59:02.431Z,66.40
2022-11-16T08:01:30.199Z,68.50
2022-11-16T08:03:57.954Z,72.00
2022-11-16T08:06:30.904Z,77.70
2022-11-16T08:08:59.637Z,68.50
2022-11-16T08:11:27.751Z,65.60
2022-11-16T08:13:57.339Z,62.90
2022-11-16T08:16:25.325Z,72.30
2022-11-16T08:18:53.084Z,76.20
2022-11-16T08:21:20.767Z,53.70
2022-11-16T08:23:51.553Z,60.50
2022-11-16T08:26:22.567Z,73.00
2022-11-16T08:28:53.557Z,64.50
2022-11-16T08:31:26.238Z,67.00
2022-11-16T08:33:54.411Z,59.60
2022-11-16T08:36:22.280Z,63.30
2022-11-16T08:38:51.365Z,60.90
2022-11-16T08:41:20.593Z,61.00
2022-11-16T08:43:50.647Z,55.90
2022-11-16T08:46:18.499Z,48.70
2022-11-16T08:48:46.311Z,34.60
2022-11-16T08:54:05.150Z,48.10
2022-11-16T08:56:33.335Z,52.60
2022-11-16T08:59:01.190Z,74.60
2022-11-16T09:01:32.581Z,81.60
2022-11-16T09:04:00.713Z,64.00
2022-11-16T09:06:28.517Z,48.90
2022-11-16T09:08:57.065Z,48.30
2022-11-16T09:11:26.056Z,46.10
2022-11-16T09:16:41.871Z,41.20
2022-11-16T09:19:10.853Z,46.90
2022-11-16T09:21:38.637Z,135.70
2022-11-16T09:24:06.439Z,91.20
2022-11-16T09:26:34.061Z,62.10
2022-11-16T09:29:04.367Z,45.40
2022-11-16T09:31:37.422Z,31.80
2022-11-16T09:34:05.668Z,38.70
2022-11-16T09:36:34.057Z,48.70
2022-11-16T09:39:28.919Z,42.80
2022-11-16T09:42:19.587Z,33.10
2022-11-16T09:45:07.703Z,35.10
2022-11-16T09:47:44.963Z,32.30
2022-11-16T09:50:43.440Z,31.20
2022-11-16T09:53:40.657Z,37.20
2022-11-16T09:56:22.254Z,28.20
2022-11-16T09:58:56.265Z,22.60
2022-11-16T10:01:32.681Z,31.50
2022-11-16T10:04:18.787Z,24.60
2022-11-16T10:06:56.043Z,19.80
2022-11-16T10:09:25.756Z,22.90
2022-11-16T10:12:22.121Z,26.70
2022-11-16T10:15:12.855Z,20.60
2022-11-16T10:18:00.466Z,17.80
2022-11-16T10:21:13.510Z,20.60
2022-11-16T10:24:05.211Z,20.30
2022-11-16T10:27:09.757Z,21.10
2022-11-16T10:30:09.370Z,16.90
2022-11-16T10:32:47.790Z,20.50
2022-11-16T10:35:22.873Z,15.80
2022-11-16T10:37:52.418Z,15.70
2022-11-16T10:40:44.711Z,14.60
2022-11-16T10:43:28.452Z,14.80
2022-11-16T10:46:19.024Z,15.20
2022-11-16T10:49:07.285Z,15.10
2022-11-16T10:51:35.043Z,12.00
2022-11-16T10:54:12.221Z,15.20
2022-11-16T10:56:48.380Z,15.60
2022-11-16T10:59:19.905Z,12.70
2022-11-16T11:01:57.525Z,17.10
2022-11-16T11:04:29.356Z,15.70
2022-11-16T11:07:00.699Z,15.70
2022-11-16T11:09:37.063Z,13.60
2022-11-16T11:12:36.611Z,15.90
2022-11-16T11:15:26.145Z,16.30
2022-11-16T11:18:24.055Z,32.30
2022-11-16T11:21:20.106Z,43.40
2022-11-16T11:23:59.493Z,37.70
2022-11-16T11:26:41.600Z,54.00
2022-11-16T11:29:34.448Z,34.50
2022-11-16T11:32:13.360Z,27.60
2022-11-16T11:34:56.278Z,17.00
2022-11-16T11:37:31.863Z,14.10
2022-11-16T11:40:20.172Z,14.70
2022-11-16T11:42:59.854Z,12.00
2022-11-16T11:46:14.055Z,13.30
2022-11-16T11:49:03.516Z,14.70
2022-11-16T11:51:41.081Z,14.70
2022-11-16T11:54:45.636Z,13.20
2022-11-16T11:57:22.210Z,12.20
2022-11-16T11:59:53.677Z,14.20
2022-11-16T12:02:36.221Z,14.70
2022-11-16T12:05:45.673Z,15.70
2022-11-16T12:09:12.093Z,13.20
2022-11-16T12:11:52.201Z,22.40
2022-11-16T12:14:43.962Z,14.70
2022-11-16T12:17:33.287Z,13.30
2022-11-16T12:20:41.427Z,10.50
2022-11-16T12:23:38.894Z,15.90
2022-11-16T12:26:38.578Z,16.30
2022-11-16T12:29:25.671Z,14.90
2022-11-16T12:32:34.823Z,19.40
2022-11-16T12:35:37.979Z,13.70
2022-11-16T12:39:00.959Z,7.60
2022-11-16T12:41:51.093Z,13.60
2022-11-16T12:44:58.849Z,45.80
2022-11-16T12:47:48.494Z,21.50
2022-11-16T12:50:59.799Z,12.90
2022-11-16T12:53:55.201Z,15.40
2022-11-16T12:56:59.666Z,11.00
2022-11-16T13:00:01.305Z,15.00
2022-11-16T13:03:10.196Z,10.90
2022-11-16T13:05:59.012Z,11.50
2022-11-16T13:09:04.555Z,11.00
2022-11-16T13:11:40.175Z,12.60
2022-11-16T13:14:20.118Z,10.90
2022-11-16T13:16:50.163Z,8.90
2022-11-16T13:19:18.528Z,9.40
2022-11-16T13:22:21.935Z,11.40
2022-11-16T13:25:40.472Z,10.40
2022-11-16T13:28:30.645Z,10.00
2022-11-16T13:31:19.416Z,11.50
2022-11-16T13:33:53.397Z,10.50
2022-11-16T13:36:45.527Z,17.30
2022-11-16T13:39:23.044Z,31.60
2022-11-16T13:42:12.091Z,16.40
2022-11-16T13:44:40.158Z,15.00
2022-11-16T13:47:24.807Z,29.00
2022-11-16T13:49:57.780Z,19.90
2022-11-16T13:53:40.869Z,31.10
2022-11-16T13:55:42.796Z,22.10
2022-11-16T13:58:20.869Z,18.60
2022-11-16T14:01:18.946Z,10.00
2022-11-16T14:03:52.283Z,13.10
2022-11-16T14:06:19.884Z,13.50
2022-11-16T14:08:51.802Z,11.00
2022-11-16T14:11:37.573Z,13.80
2022-11-16T14:14:11.702Z,12.90
2022-11-16T14:16:49.432Z,9.90
2022-11-16T14:19:47.618Z,10.90
2022-11-16T14:23:11.324Z,11.00
2022-11-16T14:26:21.675Z,10.10
2022-11-16T14:29:14.237Z,11.50
2022-11-16T14:31:54.176Z,11.90
2022-11-16T14:34:43.528Z,10.30
2022-11-16T14:37:34.855Z,10.50
2022-11-16T14:40:20.560Z,15.00
2022-11-16T14:43:19.959Z,11.10
2022-11-16T14:45:56.272Z,11.00
2022-11-16T14:48:26.245Z,14.30
2022-11-16T14:51:10.012Z,9.60
2022-11-16T14:53:44.438Z,10.90
2022-11-16T14:56:18.517Z,13.50
2022-11-16T14:59:01.387Z,14.70
2022-11-16T15:01:39.644Z,7.20
2022-11-16T15:04:11.265Z,15.80
2022-11-16T15:06:49.841Z,15.30
2022-11-16T15:09:33.717Z,14.60
2022-11-16T15:12:32.873Z,13.10
2022-11-16T15:15:31.148Z,15.50
2022-11-16T15:17:58.722Z,12.90
2022-11-16T15:20:33.882Z,13.90
2022-11-16T15:23:04.967Z,12.10
2022-11-16T15:25:37.544Z,12.90
2022-11-16T15:28:21.033Z,14.40
2022-11-16T15:31:02.239Z,17.50
2022-11-16T15:33:33.307Z,19.30
2022-11-16T15:36:25.627Z,17.00
2022-11-16T15:38:57.496Z,13.20
2022-11-16T15:41:29.293Z,14.20
2022-11-16T15:44:16.540Z,14.40
2022-11-16T15:46:50.248Z,13.80
2022-11-16T15:49:40.540Z,13.50
2022-11-16T15:52:08.250Z,15.40
2022-11-16T15:54:55.564Z,11.90
2022-11-16T15:57:25.128Z,13.40
2022-11-16T15:59:56.799Z,13.40
2022-11-16T16:02:31.260Z,9.60
2022-11-16T16:04:59.021Z,11.40
2022-11-16T16:07:42.479Z,9.40
2022-11-16T16:10:25.295Z,9.30
2022-11-16T16:12:59.943Z,9.50
2022-11-16T16:15:36.031Z,10.20
2022-11-16T16:18:36.801Z,7.80
2022-11-16T16:21:04.708Z,10.30
2022-11-16T16:23:32.722Z,11.50
2022-11-16T16:26:03.972Z,12.20
2022-11-16T16:28:31.608Z,12.20
2022-11-16T16:30:59.442Z,12.40
2022-11-16T16:33:29.854Z,14.40
2022-11-16T16:35:57.768Z,9.60
2022-11-16T16:38:25.505Z,10.60
2022-11-16T16:40:53.281Z,7.90
2022-11-16T16:43:20.968Z,8.00
2022-11-16T16:45:48.642Z,7.90
2022-11-16T16:48:16.407Z,6.90
2022-11-16T16:50:44.281Z,7.20
2022-11-16T16:53:15.353Z,8.80
2022-11-16T16:55:43.925Z,7.90
2022-11-16T16:58:13.663Z,4.80
2022-11-16T17:00:42.204Z,6.00
2022-11-16T17:03:10.124Z,4.80
2022-11-16T17:05:37.821Z,7.00
2022-11-16T17:08:06.630Z,7.70
2022-11-16T17:10:34.528Z,5.70
2022-11-16T17:13:03.188Z,5.10
2022-11-16T17:15:31.025Z,4.70
2022-11-16T17:17:59.938Z,5.80
2022-11-16T17:20:27.812Z,6.50
2022-11-16T17:22:56.431Z,5.00
2022-11-16T17:25:25.148Z,8.20
2022-11-16T17:27:53.016Z,6.10
2022-11-16T17:30:20.792Z,7.70
2022-11-16T17:32:48.580Z,6.60
2022-11-16T17:35:16.854Z,10.30
2022-11-16T17:37:44.634Z,11.70
2022-11-16T17:40:13.087Z,12.00
2022-11-16T17:42:41.012Z,12.10
2022-11-16T17:45:09.191Z,8.70
2022-11-16T17:47:36.962Z,6.00
2022-11-16T17:50:05.367Z,7.10
2022-11-16T17:52:33.043Z,12.10
2022-11-16T17:55:00.817Z,10.50
2022-11-16T17:57:28.384Z,8.30
2022-11-16T17:59:56.124Z,7.50
2022-11-16T18:02:23.793Z,9.20
2022-11-16T18:04:51.692Z,5.30
2022-11-16T18:07:19.477Z,5.30
2022-11-16T18:09:47.151Z,4.30
2022-11-16T18:12:14.837Z,4.60
2022-11-16T18:14:54.770Z,5.20
2022-11-16T18:17:31.360Z,5.50
2022-11-16T18:19:59.066Z,5.70
2022-11-16T18:22:27.006Z,5.40
2022-11-16T18:24:54.828Z,8.00
2022-11-16T18:27:22.793Z,5.30
2022-11-16T18:29:51.789Z,7.80
2022-11-16T18:32:19.814Z,3.60
2022-11-16T18:34:47.557Z,5.40
2022-11-16T18:37:15.216Z,5.40
2022-11-16T18:39:42.855Z,5.70
2022-11-16T18:42:12.330Z,6.00
2022-11-16T18:44:40.040Z,7.80
2022-11-16T18:47:07.707Z,6.00
2022-11-16T18:49:37.248Z,5.20
2022-11-16T18:52:05.169Z,5.10
2022-11-16T18:54:32.855Z,6.30
2022-11-16T18:57:00.560Z,7.10
2022-11-16T18:59:28.286Z,5.90
2022-11-16T19:01:55.944Z,4.80
2022-11-16T19:04:23.798Z,6.30
2022-11-16T19:06:53.327Z,5.80
2022-11-16T19:09:21.160Z,5.40
2022-11-16T19:11:50.734Z,5.90
2022-11-16T19:14:18.545Z,5.10
2022-11-16T19:16:54.005Z,6.20
2022-11-16T19:19:24.389Z,4.20
2022-11-16T19:21:52.185Z,6.60
2022-11-16T19:24:20.192Z,3.90
2022-11-16T19:26:47.805Z,4.00
2022-11-16T19:29:15.552Z,5.60
2022-11-16T19:31:43.216Z,5.10
2022-11-16T19:34:13.177Z,6.90
2022-11-16T19:36:41.036Z,5.10
2022-11-16T19:39:08.760Z,5.40
2022-11-16T19:41:36.485Z,4.80
2022-11-16T19:44:04.217Z,4.70
2022-11-16T19:46:33.916Z,3.80
2022-11-16T19:49:01.720Z,5.20
2022-11-16T19:51:33.643Z,4.80
2022-11-16T19:54:02.775Z,4.10
2022-11-16T19:56:31.050Z,5.20
2022-11-16T19:58:58.746Z,6.00
2022-11-16T20:01:29.355Z,5.00
2022-11-16T20:04:00.886Z,4.60
2022-11-16T20:06:32.529Z,4.50
2022-11-16T20:09:08.601Z,5.20
2022-11-16T20:11:39.103Z,6.90
2022-11-16T20:14:10.257Z,5.10
2022-11-16T20:16:41.453Z,7.70
2022-11-16T20:19:10.346Z,5.30
2022-11-16T20:21:42.789Z,4.70
2022-11-16T20:24:15.938Z,4.50
2022-11-16T20:26:49.212Z,6.80
2022-11-16T20:29:18.974Z,4.20
2022-11-16T20:31:47.289Z,4.60
2022-11-16T20:34:17.529Z,5.20
2022-11-16T20:36:47.652Z,5.60
2022-11-16T20:39:19.248Z,6.20
2022-11-16T20:41:48.212Z,5.30
2022-11-16T20:44:23.700Z,5.40
2022-11-16T20:46:52.631Z,8.00
2022-11-16T20:49:20.819Z,5.00
2022-11-16T20:51:50.283Z,7.50
2022-11-16T20:54:18.435Z,6.20
2022-11-16T20:56:48.192Z,3.60
2022-11-16T20:59:16.770Z,6.50
2022-11-16T21:01:47.843Z,4.80
2022-11-16T21:04:16.435Z,4.00
2022-11-16T21:06:44.303Z,5.60
2022-11-16T21:09:15.607Z,4.60
2022-11-16T21:12:02.010Z,5.90
2022-11-16T21:14:29.773Z,4.40
2022-11-16T21:16:57.396Z,5.80
2022-11-16T21:19:25.113Z,4.20
2022-11-16T21:21:52.689Z,4.00
2022-11-16T21:24:21.773Z,4.30
2022-11-16T21:26:49.838Z,5.70
2022-11-16T21:29:17.818Z,8.10
2022-11-16T21:31:45.524Z,4.60
2022-11-16T21:34:13.768Z,5.70
2022-11-16T21:36:41.424Z,6.60
2022-11-16T21:39:09.635Z,5.50
2022-11-16T21:41:37.596Z,6.30
2022-11-16T21:44:05.395Z,5.50
2022-11-16T21:46:33.125Z,6.90
2022-11-16T21:49:00.788Z,5.90
2022-11-16T21:51:28.503Z,4.70
2022-11-16T21:53:56.655Z,6.20
2022-11-16T21:56:26.150Z,6.00
2022-11-16T21:58:54.593Z,5.20
2022-11-16T22:01:23.732Z,3.70
2022-11-16T22:04:10.868Z,6.20
2022-11-16T22:06:57.531Z,6.60
2022-11-16T22:09:25.245Z,4.70
2022-11-16T22:11:52.922Z,4.50
2022-11-16T22:14:20.739Z,3.70
2022-11-16T22:16:48.420Z,5.00
2022-11-16T22:19:16.020Z,5.60
2022-11-16T22:21:43.825Z,6.20
2022-11-16T22:24:11.481Z,5.10
2022-11-16T22:26:40.024Z,5.30
2022-11-16T22:29:07.804Z,5.70
2022-11-16T22:31:36.301Z,6.00
2022-11-16T22:34:04.261Z,6.70
2022-11-16T22:36:31.934Z,4.40
2022-11-16T22:39:00.715Z,4.20
2022-11-16T22:41:28.379Z,4.80
2022-11-16T22:43:56.084Z,6.90
2022-11-16T22:46:23.721Z,6.10
2022-11-16T22:48:51.439Z,5.20
2022-11-16T22:51:30.217Z,5.10
2022-11-16T22:54:01.632Z,4.60
2022-11-16T22:56:32.176Z,3.40
2022-11-16T22:59:05.411Z,5.10
2022-11-16T23:01:33.407Z,5.70
2022-11-16T23:04:01.719Z,7.10
2022-11-16T23:06:29.511Z,4.90
2022-11-16T23:08:57.666Z,6.00
2022-11-16T23:11:46.965Z,6.60
2022-11-16T23:14:36.146Z,4.50
2022-11-16T23:17:04.851Z,5.50
2022-11-16T23:19:52.356Z,5.60
2022-11-16T23:22:40.702Z,5.30
2022-11-16T23:25:30.283Z,7.80
2022-11-16T23:28:06.735Z,5.40
2022-11-16T23:30:36.460Z,7.90
2022-11-16T23:33:04.180Z,6.50
2022-11-16T23:35:32.457Z,6.10
2022-11-16T23:38:06.132Z,3.00
2022-11-16T23:40:39.750Z,5.50
2022-11-16T23:43:29.600Z,6.30
2022-11-16T23:45:57.283Z,5.90
2022-11-16T23:48:25.008Z,3.20
2022-11-16T23:50:52.699Z,4.20
2022-11-16T23:53:20.436Z,4.80
2022-11-16T23:55:48.041Z,6.20
2022-11-16T23:58:15.740Z,5.30
